Time;durP1;ratioP1;P1;durP2;ratioP2;P2;SDS_P1;SDS_P2;PMS_P1;PMS_P2;Temp;Humidity;BMP_temperature;BMP_pressure;BME280_temperature;BME280_humidity;BME280_pressure;Samples;Min_cycle;Max_cycle;Signal;HPM_P1;HPM_P2
2021/05/19 00:02:19;;;;;;;6.25;4.38;;;12.10;1.00;;;;;;4995675;28;20019;-86
2021/05/19 00:04:44;;;;;;;6.65;4.40;;;11.70;1.00;;;;;;4995155;28;20046;-85
2021/05/19 00:07:10;;;;;;;5.60;4.20;;;11.80;1.00;;;;;;4978392;28;20034;-85
2021/05/19 00:09:35;;;;;;;8.90;4.97;;;12.00;1.00;;;;;;4980263;28;20026;-86
2021/05/19 00:12:01;;;;;;;6.20;4.13;;;11.80;1.00;;;;;;4994847;28;20038;-85
2021/05/19 00:14:27;;;;;;;10.15;4.85;;;11.70;1.00;;;;;;4993042;28;20035;-85
2021/05/19 00:16:53;;;;;;;6.53;4.63;;;11.70;1.00;;;;;;4994459;28;20800;-85
2021/05/19 00:19:19;;;;;;;6.05;4.60;;;11.70;1.00;;;;;;4994463;28;20029;-85
2021/05/19 00:21:45;;;;;;;8.73;5.15;;;12.30;1.00;;;;;;4994645;28;20037;-86
2021/05/19 00:24:11;;;;;;;6.18;4.53;;;11.90;1.00;;;;;;4994431;28;20510;-85
2021/05/19 00:26:37;;;;;;;4.85;4.30;;;11.90;1.00;;;;;;4995227;28;20511;-86
2021/05/19 00:29:04;;;;;;;6.85;4.45;;;11.80;1.00;;;;;;4994365;28;20150;-84
2021/05/19 00:31:33;;;;;;;6.07;4.93;;;12.30;1.00;;;;;;4994122;28;20042;-85
2021/05/19 00:33:59;;;;;;;5.88;4.60;;;11.70;1.00;;;;;;4994513;28;20022;-85
2021/05/19 00:36:25;;;;;;;6.88;5.45;;;11.80;1.00;;;;;;4994276;28;20042;-85
2021/05/19 00:38:53;;;;;;;8.82;5.60;;;11.80;1.00;;;;;;4994188;28;20031;-86
2021/05/19 00:41:19;;;;;;;6.78;4.70;;;11.80;1.00;;;;;;4978592;28;20030;-85
2021/05/19 00:43:44;;;;;;;6.93;4.93;;;11.90;1.00;;;;;;4994075;28;20101;-85
2021/05/19 00:46:10;;;;;;;7.53;5.70;;;11.80;1.00;;;;;;4994177;28;20117;-86
2021/05/19 00:48:36;;;;;;;8.00;5.20;;;11.80;1.00;;;;;;4994650;28;20042;-85
2021/05/19 00:51:04;;;;;;;6.88;5.47;;;11.80;1.00;;;;;;4993897;28;20033;-85
2021/05/19 00:53:29;;;;;;;7.65;5.55;;;11.80;1.00;;;;;;4992659;28;20038;-85
2021/05/19 00:55:55;;;;;;;6.68;4.88;;;12.20;1.00;;;;;;4979437;28;20551;-85
2021/05/19 00:58:21;;;;;;;7.80;5.72;;;11.80;1.00;;;;;;4993872;28;20488;-85
2021/05/19 01:00:46;;;;;;;6.55;5.28;;;11.80;1.00;;;;;;4994274;28;20030;-86
2021/05/19 01:03:12;;;;;;;8.27;5.53;;;11.90;1.00;;;;;;4993846;28;20499;-85
2021/05/19 01:05:51;;;;;;;7.25;5.45;;;11.90;1.00;;;;;;4994415;28;20030;-86
2021/05/19 01:11:10;;;;;;;7.28;5.18;;;11.80;1.00;;;;;;4993811;28;20042;-87
2021/05/19 01:13:41;;;;;;;7.10;5.05;;;11.80;1.00;;;;;;4977634;28;20068;-86
2021/05/19 01:16:07;;;;;;;7.97;5.53;;;11.70;1.00;;;;;;4977722;28;20113;-86
2021/05/19 01:18:36;;;;;;;6.78;4.75;;;11.80;1.00;;;;;;4994217;28;20116;-87
2021/05/19 01:21:03;;;;;;;5.97;4.97;;;11.80;1.00;;;;;;4993536;28;20035;-85
2021/05/19 01:23:30;;;;;;;6.75;4.65;;;11.70;1.00;;;;;;4991713;28;20034;-86
2021/05/19 01:25:58;;;;;;;6.45;4.82;;;11.70;1.00;;;;;;4977035;28;20133;-86
2021/05/19 01:28:24;;;;;;;6.28;4.38;;;11.60;1.00;;;;;;4993701;28;20535;-86
2021/05/19 01:30:50;;;;;;;6.43;4.72;;;11.60;1.00;;;;;;4993185;28;20041;-85
2021/05/19 01:33:16;;;;;;;5.63;4.30;;;11.60;1.00;;;;;;4977839;28;20030;-86
2021/05/19 01:35:42;;;;;;;5.93;4.40;;;11.70;1.00;;;;;;4994383;28;20038;-86
2021/05/19 01:38:17;;;;;;;7.00;4.40;;;11.90;1.00;;;;;;4992537;28;20497;-86
2021/05/19 01:40:43;;;;;;;7.75;5.15;;;11.60;1.00;;;;;;4993299;28;20061;-85
2021/05/19 01:43:09;;;;;;;5.07;4.57;;;11.50;1.00;;;;;;4992366;28;20050;-85
2021/05/19 01:45:35;;;;;;;7.32;5.03;;;11.60;1.00;;;;;;4993458;28;20026;-85
2021/05/19 01:48:01;;;;;;;7.10;4.50;;;11.70;1.00;;;;;;4992895;28;20033;-86
2021/05/19 01:50:29;;;;;;;5.63;4.47;;;11.60;1.00;;;;;;4993788;28;20068;-86
2021/05/19 01:53:02;;;;;;;7.70;4.43;;;11.60;1.00;;;;;;4992752;28;20030;-86
2021/05/19 01:55:29;;;;;;;6.65;4.28;;;11.50;1.00;;;;;;4992752;28;20044;-85
2021/05/19 01:57:55;;;;;;;7.47;4.55;;;11.60;1.00;;;;;;4992436;28;20033;-85
2021/05/19 02:00:26;;;;;;;8.18;4.65;;;11.60;1.00;;;;;;4992724;28;20031;-86
2021/05/19 02:03:00;;;;;;;8.10;4.80;;;12.10;1.00;;;;;;4975924;28;20026;-86
2021/05/19 02:05:28;;;;;;;6.13;4.25;;;11.70;1.00;;;;;;4993005;28;20030;-85
2021/05/19 02:07:55;;;;;;;5.45;4.43;;;11.60;1.00;;;;;;4992497;28;20019;-86
2021/05/19 02:10:21;;;;;;;4.95;4.15;;;11.50;1.00;;;;;;4992838;28;20042;-84
2021/05/19 02:12:47;;;;;;;11.27;5.13;;;11.50;1.00;;;;;;4990916;28;20018;-85
2021/05/19 02:15:16;;;;;;;6.15;4.30;;;11.50;1.00;;;;;;4992383;28;20423;-85
2021/05/19 02:17:41;;;;;;;6.80;4.53;;;11.50;1.00;;;;;;4993296;28;20023;-85
2021/05/19 02:20:12;;;;;;;11.68;5.05;;;11.50;1.00;;;;;;4992173;28;20410;-85
2021/05/19 02:22:41;;;;;;;8.98;4.80;;;11.50;1.00;;;;;;4992780;28;20061;-85
2021/05/19 02:25:08;;;;;;;6.45;4.47;;;11.60;1.00;;;;;;4992506;28;20038;-85
2021/05/19 02:27:34;;;;;;;6.95;4.70;;;11.70;1.00;;;;;;4992522;28;20088;-85
2021/05/19 02:29:59;;;;;;;6.25;4.80;;;12.10;1.00;;;;;;4992741;28;20116;-86
2021/05/19 02:32:26;;;;;;;11.25;5.35;;;11.70;1.00;;;;;;4992824;28;20030;-85
2021/05/19 02:34:52;;;;;;;8.57;5.50;;;11.60;1.00;;;;;;4991724;28;20045;-85
2021/05/19 02:37:18;;;;;;;7.53;5.20;;;11.60;1.00;;;;;;4976124;28;20399;-86
2021/05/19 02:39:44;;;;;;;7.43;5.20;;;11.60;1.00;;;;;;4992226;28;20048;-85
2021/05/19 02:42:10;;;;;;;10.27;5.40;;;11.60;1.00;;;;;;4991920;28;20026;-85
2021/05/19 02:44:36;;;;;;;7.05;5.13;;;11.80;1.00;;;;;;4992639;28;20121;-85
2021/05/19 02:47:03;;;;;;;7.72;5.32;;;11.60;1.00;;;;;;4992573;28;20034;-85
2021/05/19 02:49:28;;;;;;;8.73;5.03;;;11.60;1.00;;;;;;4991531;28;20034;-86
2021/05/19 02:51:54;;;;;;;6.55;4.57;;;11.40;1.00;;;;;;4990459;28;20104;-85
2021/05/19 02:54:19;;;;;;;5.87;4.30;;;11.40;1.00;;;;;;4974259;28;20034;-85
2021/05/19 02:56:45;;;;;;;4.32;3.58;;;11.80;1.00;;;;;;4992496;28;20030;-85
2021/05/19 02:59:11;;;;;;;5.35;3.67;;;11.40;1.00;;;;;;4992050;28;20034;-85
2021/05/19 03:01:36;;;;;;;5.95;2.88;;;11.40;1.00;;;;;;4991690;28;20037;-85
2021/05/19 03:04:02;;;;;;;6.45;2.85;;;11.40;1.00;;;;;;4991858;28;20022;-85
2021/05/19 03:06:28;;;;;;;4.82;2.80;;;11.40;1.00;;;;;;4991886;28;20014;-86
2021/05/19 03:08:54;;;;;;;6.72;2.67;;;11.40;1.00;;;;;;4991952;28;20487;-85
2021/05/19 03:11:20;;;;;;;6.03;2.58;;;11.40;1.00;;;;;;4991997;28;20030;-86
2021/05/19 03:13:45;;;;;;;4.70;2.97;;;11.40;1.00;;;;;;4991720;28;20027;-86
2021/05/19 03:16:11;;;;;;;5.63;3.05;;;11.30;1.00;;;;;;4992040;28;20581;-86
2021/05/19 03:18:37;;;;;;;5.90;3.55;;;11.40;1.00;;;;;;4975117;28;20026;-85
2021/05/19 03:21:03;;;;;;;4.72;3.45;;;11.30;1.00;;;;;;4991858;28;20487;-85
2021/05/19 03:23:30;;;;;;;8.80;5.00;;;11.40;1.00;;;;;;4990695;28;20011;-86
2021/05/19 03:25:56;;;;;;;5.75;4.10;;;11.50;1.00;;;;;;4982038;28;20050;-85
2021/05/19 03:28:22;;;;;;;4.53;2.75;;;11.50;1.00;;;;;;4991524;28;20467;-86
2021/05/19 03:30:48;;;;;;;5.07;3.00;;;11.50;1.00;;;;;;4992009;28;20105;-86
2021/05/19 03:33:14;;;;;;;3.85;2.00;;;11.60;1.00;;;;;;4991442;28;20026;-86
2021/05/19 03:35:39;;;;;;;4.30;1.90;;;11.40;1.00;;;;;;4992636;28;20045;-85
2021/05/19 03:38:05;;;;;;;2.03;1.40;;;11.40;1.00;;;;;;4991425;28;20027;-86
2021/05/19 03:40:31;;;;;;;3.75;1.58;;;11.30;1.00;;;;;;4991524;28;20105;-86
2021/05/19 03:42:57;;;;;;;2.70;1.80;;;11.60;1.00;;;;;;4984561;28;20035;-86
2021/05/19 03:45:24;;;;;;;2.47;1.60;;;11.70;1.00;;;;;;4991503;28;20034;-85
2021/05/19 03:47:52;;;;;;;2.83;1.58;;;11.30;1.00;;;;;;4974434;28;20384;-86
2021/05/19 03:50:21;;;;;;;4.07;1.90;;;11.30;1.00;;;;;;4960656;28;20027;-86
2021/05/19 03:52:46;;;;;;;2.95;1.70;;;11.20;1.00;;;;;;4987696;28;20479;-86
2021/05/19 03:55:13;;;;;;;2.40;1.65;;;11.20;1.00;;;;;;4991466;28;20038;-86
2021/05/19 03:57:39;;;;;;;2.33;1.80;;;11.20;1.00;;;;;;4991567;28;20460;-86
2021/05/19 04:00:07;;;;;;;4.85;1.67;;;11.30;1.00;;;;;;4991594;28;20033;-86
2021/05/19 04:02:33;;;;;;;2.60;1.50;;;11.20;1.00;;;;;;4991958;28;20072;-85
2021/05/19 04:04:59;;;;;;;3.78;1.25;;;11.20;1.00;;;;;;4982615;28;20486;-86
2021/05/19 04:07:24;;;;;;;1.67;1.20;;;11.20;1.00;;;;;;4994742;28;20054;-86
2021/05/19 04:09:50;;;;;;;3.13;1.30;;;11.30;1.00;;;;;;4994891;28;20049;-85
2021/05/19 04:12:15;;;;;;;3.47;1.58;;;11.20;1.00;;;;;;4995216;28;20529;-86
2021/05/19 04:14:41;;;;;;;3.15;1.58;;;11.20;1.00;;;;;;4995370;28;20018;-85
2021/05/19 04:17:07;;;;;;;2.08;1.27;;;11.20;1.00;;;;;;4993748;28;20034;-86
2021/05/19 04:19:33;;;;;;;3.00;1.52;;;11.30;1.00;;;;;;4994626;28;20034;-86
2021/05/19 04:22:00;;;;;;;1.75;1.20;;;11.60;1.00;;;;;;4995025;28;20077;-86
2021/05/19 04:24:25;;;;;;;2.90;1.30;;;11.60;1.00;;;;;;4994547;28;20027;-86
2021/05/19 04:26:51;;;;;;;1.98;1.27;;;11.40;1.00;;;;;;4994723;28;20050;-85
2021/05/19 04:29:18;;;;;;;4.03;1.15;;;11.40;1.00;;;;;;4994610;28;20037;-86
2021/05/19 04:31:43;;;;;;;3.20;1.35;;;11.40;1.00;;;;;;4994398;28;20023;-86
2021/05/19 04:34:09;;;;;;;2.47;1.25;;;11.30;1.00;;;;;;4994965;28;20034;-86
2021/05/19 04:36:35;;;;;;;3.42;1.20;;;11.40;1.00;;;;;;4994561;28;20089;-86
2021/05/19 04:39:01;;;;;;;4.50;2.05;;;11.40;1.00;;;;;;4994716;28;20126;-85
2021/05/19 04:41:27;;;;;;;2.42;1.40;;;11.40;1.00;;;;;;4994965;28;20034;-84
2021/05/19 04:43:53;;;;;;;1.30;1.10;;;11.30;1.00;;;;;;4994824;28;20026;-85
2021/05/19 04:46:19;;;;;;;2.88;1.30;;;11.30;1.00;;;;;;4993568;28;20022;-85
2021/05/19 04:48:44;;;;;;;2.75;1.30;;;11.20;1.00;;;;;;4994317;28;20395;-86
2021/05/19 04:51:10;;;;;;;2.03;1.27;;;11.30;1.00;;;;;;4994904;28;20022;-87
2021/05/19 04:53:36;;;;;;;4.97;1.30;;;11.40;1.00;;;;;;4994576;28;20041;-86
2021/05/19 04:56:01;;;;;;;3.90;1.60;;;11.30;1.00;;;;;;4993816;28;20380;-85
2021/05/19 04:58:27;;;;;;;3.35;1.58;;;11.20;1.00;;;;;;4977156;28;20027;-85
2021/05/19 05:00:53;;;;;;;2.70;1.63;;;11.30;1.00;;;;;;4994109;28;20026;-86
2021/05/19 05:03:20;;;;;;;2.28;1.40;;;11.30;1.00;;;;;;4993985;28;20035;-87
2021/05/19 05:05:46;;;;;;;4.05;1.70;;;11.80;1.00;;;;;;4977215;28;20038;-85
2021/05/19 05:08:12;;;;;;;3.03;1.50;;;11.30;1.00;;;;;;4993588;28;20057;-85
2021/05/19 05:10:38;;;;;;;3.20;1.58;;;11.30;1.00;;;;;;4994240;28;20559;-86
2021/05/19 05:13:04;;;;;;;2.90;1.80;;;11.30;1.00;;;;;;4993603;28;20038;-88
2021/05/19 05:15:29;;;;;;;2.95;1.83;;;11.50;1.00;;;;;;4991098;28;20050;-87
2021/05/19 05:17:55;;;;;;;3.35;1.65;;;11.50;1.00;;;;;;4976547;28;20510;-88
2021/05/19 05:20:21;;;;;;;4.90;1.70;;;11.40;1.00;;;;;;4994808;28;20034;-87
2021/05/19 05:22:48;;;;;;;2.30;1.70;;;11.90;1.00;;;;;;4977313;28;20110;-87
2021/05/19 05:25:13;;;;;;;3.53;1.80;;;11.50;1.00;;;;;;4993959;28;20038;-86
2021/05/19 05:27:40;;;;;;;2.63;1.88;;;11.40;1.00;;;;;;4978229;28;20384;-86
2021/05/19 05:30:06;;;;;;;2.25;1.60;;;11.40;1.00;;;;;;4993880;28;20030;-86
2021/05/19 05:32:32;;;;;;;3.97;2.10;;;11.40;1.00;;;;;;4994528;28;20019;-88
2021/05/19 05:34:57;;;;;;;2.28;1.50;;;11.40;1.00;;;;;;4994331;28;20030;-87
2021/05/19 05:37:23;;;;;;;3.45;1.73;;;11.40;1.00;;;;;;4976570;28;20592;-86
2021/05/19 05:39:49;;;;;;;3.10;2.08;;;11.50;1.00;;;;;;4993533;28;20446;-86
2021/05/19 05:42:15;;;;;;;3.97;2.13;;;11.50;1.00;;;;;;4993677;28;20033;-89
2021/05/19 05:44:40;;;;;;;3.00;2.10;;;11.60;1.00;;;;;;4993823;28;20041;-87
2021/05/19 05:47:06;;;;;;;4.53;2.08;;;11.60;1.00;;;;;;4994051;28;20038;-87
2021/05/19 05:49:32;;;;;;;3.42;1.45;;;11.70;1.00;;;;;;4993771;28;20045;-88
2021/05/19 05:51:57;;;;;;;2.53;1.75;;;11.70;1.00;;;;;;4994157;28;20026;-87
2021/05/19 05:54:23;;;;;;;2.88;1.80;;;12.30;1.00;;;;;;4976596;28;20414;-87
2021/05/19 05:56:49;;;;;;;4.65;2.17;;;11.80;1.00;;;;;;4976748;28;20148;-88
2021/05/19 05:59:14;;;;;;;3.60;2.50;;;11.80;1.00;;;;;;4992869;28;20019;-90
2021/05/19 06:01:40;;;;;;;4.97;2.55;;;11.80;1.00;;;;;;4989306;28;20041;-87
2021/05/19 06:04:06;;;;;;;3.92;1.98;;;12.00;1.00;;;;;;4992394;28;20144;-85
2021/05/19 06:06:31;;;;;;;3.42;2.22;;;12.00;1.00;;;;;;4993395;28;20034;-88
2021/05/19 06:08:57;;;;;;;6.13;2.58;;;12.20;1.00;;;;;;4994355;28;20022;-89
2021/05/19 06:11:23;;;;;;;3.95;3.03;;;12.80;1.00;;;;;;4988634;28;20030;-86
2021/05/19 06:13:49;;;;;;;3.58;2.92;;;12.70;1.00;;;;;;4992571;28;20023;-89
2021/05/19 06:16:14;;;;;;;5.07;3.70;;;12.50;1.00;;;;;;4989514;28;20070;-88
2021/05/19 06:18:40;;;;;;;6.45;4.05;;;13.00;1.00;;;;;;4994064;28;20026;-89
2021/05/19 06:21:06;;;;;;;4.30;3.17;;;12.50;1.00;;;;;;4974604;28;20084;-90
2021/05/19 06:23:32;;;;;;;5.97;3.63;;;12.50;1.00;;;;;;4975330;28;20027;-95
2021/05/19 06:25:58;;;;;;;5.82;3.55;;;12.50;1.00;;;;;;4990820;28;20129;-91
2021/05/19 06:28:23;;;;;;;4.70;3.42;;;12.90;1.00;;;;;;4979402;28;20058;-89
2021/05/19 06:30:49;;;;;;;3.85;3.45;;;12.70;1.00;;;;;;4992712;28;20042;-91
2021/05/19 06:33:15;;;;;;;4.28;3.30;;;12.80;1.00;;;;;;4992787;28;20030;-93
2021/05/19 06:35:40;;;;;;;4.40;3.55;;;13.00;1.00;;;;;;4976454;28;20522;-92
2021/05/19 06:38:06;;;;;;;6.18;3.30;;;13.20;1.00;;;;;;4977236;28;20058;-93
2021/05/19 06:40:32;;;;;;;6.15;3.58;;;13.20;1.00;;;;;;4992575;28;20037;-92
2021/05/19 06:42:58;;;;;;;5.32;3.35;;;13.20;1.00;;;;;;4986780;28;20508;-89
2021/05/19 06:45:24;;;;;;;5.45;3.35;;;13.30;1.00;;;;;;4976432;28;20062;-89
2021/05/19 06:47:53;;;;;;;4.60;2.70;;;13.20;1.00;;;;;;4993306;28;20049;-88
2021/05/19 06:50:18;;;;;;;3.65;2.47;;;13.20;1.00;;;;;;4992376;28;20430;-89
2021/05/19 06:52:44;;;;;;;3.88;2.30;;;13.20;1.00;;;;;;4976221;28;20023;-88
2021/05/19 06:55:12;;;;;;;6.07;2.40;;;13.00;1.00;;;;;;4992869;28;20500;-89
2021/05/19 06:57:38;;;;;;;4.45;2.90;;;13.00;1.00;;;;;;4991765;28;20443;-90
2021/05/19 07:00:06;;;;;;;5.78;2.80;;;12.90;1.00;;;;;;4974802;28;20027;-89
2021/05/19 07:02:32;;;;;;;3.97;2.50;;;12.90;1.00;;;;;;4992920;28;20057;-89
2021/05/19 07:04:58;;;;;;;4.93;2.50;;;13.00;1.00;;;;;;4977326;28;20079;-89
2021/05/19 07:07:24;;;;;;;4.53;2.10;;;13.10;1.00;;;;;;4992134;28;20030;-89
2021/05/19 07:09:49;;;;;;;5.38;2.50;;;13.50;1.00;;;;;;4975717;28;20034;-89
2021/05/19 07:12:15;;;;;;;5.72;1.98;;;13.60;1.00;;;;;;4990991;28;20042;-88
2021/05/19 07:14:48;;;;;;;3.53;1.90;;;13.40;1.00;;;;;;4991588;28;20023;-89
2021/05/19 07:17:14;;;;;;;3.80;2.63;;;13.50;1.00;;;;;;4990971;28;20041;-89
2021/05/19 07:19:39;;;;;;;3.28;1.60;;;13.60;1.00;;;;;;4978028;28;20026;-89
2021/05/19 07:22:05;;;;;;;3.97;2.30;;;13.70;1.00;;;;;;4991814;28;20027;-89
2021/05/19 07:24:31;;;;;;;5.32;1.98;;;13.80;1.00;;;;;;4975562;28;20110;-89
2021/05/19 07:26:56;;;;;;;2.80;1.70;;;14.10;1.00;;;;;;4991925;28;20082;-89
2021/05/19 07:29:22;;;;;;;3.45;1.60;;;13.80;1.00;;;;;;4992263;28;20034;-89
2021/05/19 07:31:48;;;;;;;3.45;2.45;;;13.90;1.00;;;;;;4976295;28;20029;-89
2021/05/19 07:34:13;;;;;;;2.65;1.90;;;14.20;1.00;;;;;;4991402;28;20026;-89
2021/05/19 07:36:39;;;;;;;5.72;2.25;;;14.30;1.00;;;;;;4975577;28;20035;-89
2021/05/19 07:39:07;;;;;;;2.90;2.00;;;14.20;1.00;;;;;;4991347;28;20026;-89
2021/05/19 07:41:33;;;;;;;3.55;1.95;;;14.10;1.00;;;;;;4995341;28;20034;-88
2021/05/19 07:43:59;;;;;;;2.40;1.70;;;14.00;1.00;;;;;;4980767;28;20025;-89
2021/05/19 07:46:25;;;;;;;2.15;1.30;;;14.40;1.00;;;;;;4979706;28;20049;-89
2021/05/19 07:48:50;;;;;;;3.53;1.77;;;15.00;1.00;;;;;;4995808;28;20093;-89
2021/05/19 07:51:16;;;;;;;4.22;1.85;;;14.70;1.00;;;;;;4995751;28;20406;-89
2021/05/19 07:53:43;;;;;;;3.15;1.33;;;14.50;1.00;;;;;;4995665;28;20046;-88
2021/05/19 07:56:18;;;;;;;3.78;1.80;;;14.90;1.00;;;;;;4979306;28;20042;-89
2021/05/19 07:58:48;;;;;;;5.07;1.40;;;14.20;1.00;;;;;;4995375;28;20015;-89
2021/05/19 08:03:58;;;;;;;3.00;1.30;;;14.00;1.00;;;;;;4995370;28;20037;-89
2021/05/19 08:06:24;;;;;;;3.78;1.60;;;13.90;1.00;;;;;;4995728;28;20407;-89
2021/05/19 08:08:50;;;;;;;3.90;1.45;;;14.20;1.00;;;;;;4995328;28;20049;-88
2021/05/19 08:11:16;;;;;;;3.60;1.48;;;14.00;1.00;;;;;;4979284;28;20050;-89
2021/05/19 08:13:47;;;;;;;4.10;1.42;;;14.00;1.00;;;;;;4994885;28;20038;-88
2021/05/19 08:16:13;;;;;;;4.32;1.40;;;14.00;1.00;;;;;;4994798;28;20546;-89
2021/05/19 08:18:39;;;;;;;5.47;1.60;;;14.70;1.00;;;;;;4994996;28;20050;-89
2021/05/19 08:21:05;;;;;;;4.03;1.33;;;14.40;1.00;;;;;;4994854;28;20451;-88
2021/05/19 08:23:31;;;;;;;5.05;1.40;;;14.40;1.00;;;;;;4973324;28;20030;-88
2021/05/19 08:25:56;;;;;;;5.63;1.80;;;14.60;1.00;;;;;;4994377;28;20503;-88
2021/05/19 08:28:22;;;;;;;4.50;1.67;;;14.60;1.00;;;;;;4994903;28;20062;-89
2021/05/19 08:30:49;;;;;;;7.45;2.55;;;14.90;1.00;;;;;;4978846;28;20031;-89
2021/05/19 08:33:14;;;;;;;2.28;1.33;;;15.00;1.00;;;;;;4977145;28;20022;-89
2021/05/19 08:35:40;;;;;;;5.80;1.80;;;15.40;1.00;;;;;;4977817;28;20038;-89
2021/05/19 08:38:06;;;;;;;4.32;2.08;;;15.70;1.00;;;;;;4980114;28;20033;-89
2021/05/19 08:40:32;;;;;;;5.15;2.50;;;16.20;1.00;;;;;;4978482;28;20049;-88
2021/05/19 08:42:58;;;;;;;12.27;2.53;;;16.30;1.00;;;;;;4994590;28;20505;-88
2021/05/19 08:45:23;;;;;;;3.60;1.90;;;16.80;99.90;;;;;;4977393;28;20110;-89
2021/05/19 08:48:02;;;;;;;7.07;2.75;;;17.10;99.90;;;;;;4995235;28;20026;-89
2021/05/19 08:50:29;;;;;;;3.55;1.80;;;17.30;99.90;;;;;;4992564;28;20041;-89
2021/05/19 08:52:56;;;;;;;2.92;1.60;;;16.80;99.90;;;;;;4977768;28;20026;-89
2021/05/19 08:55:22;;;;;;;4.25;2.30;;;17.00;99.90;;;;;;4993950;28;20066;-89
2021/05/19 08:57:48;;;;;;;5.32;2.20;;;16.90;99.90;;;;;;4978015;28;20420;-88
2021/05/19 09:00:15;;;;;;;4.90;2.63;;;16.60;99.90;;;;;;4976960;28;20030;-89
2021/05/19 09:02:40;;;;;;;5.07;1.88;;;16.50;99.90;;;;;;4977427;28;20026;-89
2021/05/19 09:05:07;;;;;;;6.22;2.03;;;16.30;99.90;;;;;;4994148;28;20467;-89
2021/05/19 09:07:35;;;;;;;5.75;2.50;;;16.10;99.90;;;;;;4993379;28;20062;-89
2021/05/19 09:10:18;;;;;;;5.00;2.03;;;15.80;99.90;;;;;;4993630;28;20026;-88
2021/05/19 09:12:43;;;;;;;3.70;2.05;;;15.80;1.00;;;;;;4993815;28;20041;-89
2021/05/19 09:15:12;;;;;;;4.22;1.90;;;15.90;99.90;;;;;;4976433;28;20039;-89
2021/05/19 09:17:40;;;;;;;4.30;2.15;;;15.70;99.90;;;;;;4994600;28;20026;-89
2021/05/19 09:20:15;;;;;;;4.68;2.00;;;15.90;99.90;;;;;;4977504;28;20034;-89
2021/05/19 09:22:46;;;;;;;3.10;1.70;;;16.30;99.90;;;;;;4993610;28;20027;-89
2021/05/19 09:25:27;;;;;;;5.55;1.67;;;16.50;99.90;;;;;;4993377;28;20097;-89
2021/05/19 09:27:58;;;;;;;2.90;1.65;;;17.20;99.90;;;;;;4993719;28;20038;-89
2021/05/19 09:30:41;;;;;;;3.15;1.60;;;17.60;99.90;;;;;;4994086;28;22434;-89
2021/05/19 09:33:24;;;;;;;4.72;1.60;;;17.60;99.90;;;;;;4993726;28;20075;-89
2021/05/19 09:36:09;;;;;;;2.90;1.20;;;17.60;99.90;;;;;;4989978;28;20462;-89
2021/05/19 09:38:35;;;;;;;2.63;1.33;;;17.30;99.90;;;;;;4993190;28;20026;-89
2021/05/19 09:41:14;;;;;;;2.78;1.20;;;16.90;99.90;;;;;;4978650;28;20038;-89
2021/05/19 09:43:39;;;;;;;1.88;1.30;;;17.40;99.90;;;;;;4976835;28;20474;-89
2021/05/19 09:46:13;;;;;;;3.75;1.48;;;17.80;99.90;;;;;;4977212;28;20145;-90
2021/05/19 09:48:39;;;;;;;6.00;1.40;;;18.00;99.90;;;;;;4993626;28;20037;-89
2021/05/19 09:51:04;;;;;;;4.75;1.30;;;18.00;99.90;;;;;;4992668;28;20026;-89
2021/05/19 09:53:34;;;;;;;3.50;1.33;;;18.00;99.90;;;;;;4976441;28;20034;-89
2021/05/19 09:55:59;;;;;;;2.97;1.48;;;17.80;99.90;;;;;;4992012;28;20038;-89
2021/05/19 09:58:32;;;;;;;4.53;1.42;;;17.70;99.90;;;;;;4992993;28;20037;-89
2021/05/19 10:00:58;;;;;;;6.03;1.88;;;17.70;99.90;;;;;;4976989;28;20403;-89
2021/05/19 10:03:24;;;;;;;5.75;2.30;;;17.40;99.90;;;;;;4992266;28;20070;-89
2021/05/19 10:05:56;;;;;;;4.50;1.73;;;17.40;99.90;;;;;;4993170;28;20520;-89
2021/05/19 10:08:21;;;;;;;4.38;1.70;;;17.40;99.90;;;;;;4992604;28;20033;-89
2021/05/19 10:10:47;;;;;;;2.88;1.33;;;17.70;99.90;;;;;;4977081;28;20023;-89
2021/05/19 10:13:13;;;;;;;3.13;1.45;;;17.80;99.90;;;;;;4992403;28;20384;-88
2021/05/19 10:15:40;;;;;;;6.47;1.38;;;18.10;99.90;;;;;;4992584;28;20061;-89
2021/05/19 10:18:10;;;;;;;4.18;1.30;;;18.20;99.90;;;;;;4975089;28;20030;-89
2021/05/19 10:20:40;;;;;;;4.03;1.33;;;18.60;99.90;;;;;;4975203;28;20407;-89
2021/05/19 10:23:07;;;;;;;2.75;1.50;;;18.30;99.90;;;;;;4976862;28;20026;-89
2021/05/19 10:25:44;;;;;;;4.70;1.60;;;18.80;99.90;;;;;;4992280;28;20046;-89
2021/05/19 10:28:12;;;;;;;5.60;1.58;;;19.10;99.90;;;;;;4992077;28;20026;-89
2021/05/19 10:30:46;;;;;;;2.63;1.23;;;18.90;99.90;;;;;;4992949;28;20038;-89
2021/05/19 10:33:27;;;;;;;1.30;0.98;;;16.80;99.90;;;;;;4992512;28;20066;-88
2021/05/19 10:35:54;;;;;;;2.67;1.30;;;15.30;99.90;;;;;;4989542;28;20533;-88
2021/05/19 10:38:23;;;;;;;2.45;1.10;;;14.60;99.90;;;;;;4976268;28;20129;-89
2021/05/19 10:40:54;;;;;;;3.20;1.33;;;14.70;1.00;;;;;;4975663;28;20125;-88
2021/05/19 10:43:20;;;;;;;3.72;1.08;;;13.80;1.00;;;;;;4976150;28;20113;-89
2021/05/19 10:45:59;;;;;;;3.13;1.40;;;13.30;1.00;;;;;;4991981;28;20054;-88
2021/05/19 10:48:29;;;;;;;4.22;1.33;;;13.50;1.00;;;;;;4977688;28;20030;-88
2021/05/19 10:51:03;;;;;;;3.35;1.65;;;13.50;1.00;;;;;;4974879;28;20034;-89
2021/05/19 10:59:15;;;;;;;3.03;1.05;;;13.40;1.00;;;;;;4993408;28;20116;-89
2021/05/19 11:01:41;;;;;;;2.78;1.52;;;13.20;1.00;;;;;;4992338;28;20054;-90
2021/05/19 11:04:18;;;;;;;2.55;1.20;;;13.20;1.00;;;;;;4991881;28;20026;-90
2021/05/19 11:07:05;;;;;;;3.17;1.80;;;13.30;1.00;;;;;;4992071;28;20121;-89
2021/05/19 11:09:33;;;;;;;3.55;1.27;;;13.60;1.00;;;;;;4962472;28;20030;-89
2021/05/19 11:12:22;;;;;;;3.20;1.17;;;13.80;1.00;;;;;;4974885;28;20034;-89
2021/05/19 11:14:58;;;;;;;1.60;0.80;;;14.10;1.00;;;;;;4986798;28;20049;-89
2021/05/19 11:17:42;;;;;;;3.00;1.05;;;14.40;1.00;;;;;;4991434;28;20080;-89
2021/05/19 11:20:09;;;;;;;2.47;0.93;;;15.10;1.00;;;;;;4991885;28;20387;-89
2021/05/19 11:22:36;;;;;;;2.85;0.90;;;15.60;1.00;;;;;;4991077;28;20034;-88
2021/05/19 11:25:04;;;;;;;1.40;0.60;;;16.40;1.00;;;;;;4991756;28;20046;-89
2021/05/19 11:27:32;;;;;;;2.50;0.73;;;16.80;99.90;;;;;;4991792;28;20037;-88
2021/05/19 11:29:59;;;;;;;2.67;1.00;;;17.10;99.90;;;;;;4992083;28;20045;-89
2021/05/19 11:32:27;;;;;;;1.52;0.70;;;17.60;99.90;;;;;;4991762;28;20475;-89
2021/05/19 11:34:54;;;;;;;0.95;0.60;;;18.60;99.90;;;;;;4991417;28;20031;-90
2021/05/19 11:37:21;;;;;;;0.80;0.60;;;19.20;99.90;;;;;;4991914;28;20035;-89
2021/05/19 11:39:53;;;;;;;1.38;0.85;;;19.70;99.90;;;;;;4991939;28;20030;-89
2021/05/19 11:42:23;;;;;;;0.80;0.50;;;19.80;99.90;;;;;;4976703;28;20041;-89
2021/05/19 11:44:56;;;;;;;0.50;0.50;;;18.90;99.90;;;;;;4988600;28;20031;-89
2021/05/19 11:47:31;;;;;;;0.88;0.60;;;19.40;99.90;;;;;;4991310;28;20113;-89
2021/05/19 11:50:18;;;;;;;0.60;0.55;;;19.80;99.90;;;;;;4976513;28;20069;-90
2021/05/19 11:52:59;;;;;;;1.05;0.50;;;22.20;99.90;;;;;;4991270;28;20054;-89
2021/05/19 11:55:29;;;;;;;2.85;0.68;;;23.60;99.90;;;;;;4991544;28;20438;-89
2021/05/19 11:58:07;;;;;;;1.25;0.52;;;23.20;99.90;;;;;;4991401;28;20105;-89
2021/05/19 12:00:43;;;;;;;0.80;0.50;;;23.30;99.90;;;;;;4974806;28;20022;-90
2021/05/19 12:03:10;;;;;;;1.10;0.55;;;25.80;99.90;;;;;;4991721;28;20125;-88
2021/05/19 12:05:40;;;;;;;1.80;0.90;;;26.30;99.90;;;;;;4991934;28;20026;-89
2021/05/19 12:08:06;;;;;;;1.17;0.50;;;26.20;99.90;;;;;;4991590;28;20050;-89
2021/05/19 12:10:31;;;;;;;2.15;0.52;;;26.00;99.90;;;;;;4975153;28;20439;-89
2021/05/19 12:12:58;;;;;;;1.00;0.60;;;26.10;99.90;;;;;;4990811;28;20521;-89
2021/05/19 12:15:23;;;;;;;0.50;0.40;;;25.90;99.90;;;;;;4974045;28;20046;-89
2021/05/19 12:17:58;;;;;;;2.05;0.63;;;26.40;99.90;;;;;;4974079;28;20027;-89
2021/05/19 12:20:25;;;;;;;1.33;0.70;;;26.00;99.90;;;;;;4991279;28;20019;-89
2021/05/19 12:22:52;;;;;;;1.02;0.65;;;25.60;99.90;;;;;;4990785;28;20494;-89
2021/05/19 12:25:18;;;;;;;1.20;0.63;;;25.50;99.90;;;;;;4990559;28;20557;-89
2021/05/19 12:27:43;;;;;;;2.47;0.50;;;25.80;99.90;;;;;;4993689;28;20022;-89
2021/05/19 12:30:10;;;;;;;1.00;0.60;;;25.80;99.90;;;;;;4994575;28;20092;-89
2021/05/19 12:32:37;;;;;;;1.08;0.60;;;26.10;99.90;;;;;;4995382;28;20034;-89
2021/05/19 12:35:15;;;;;;;0.90;0.70;;;26.20;99.90;;;;;;4994183;28;20034;-89
2021/05/19 12:37:55;;;;;;;1.05;0.70;;;25.10;99.90;;;;;;4994133;28;20060;-89
2021/05/19 12:40:24;;;;;;;1.35;0.70;;;24.80;99.90;;;;;;4994651;28;20046;-89
2021/05/19 12:42:54;;;;;;;2.40;0.80;;;25.10;99.90;;;;;;4979572;28;20483;-89
2021/05/19 12:45:29;;;;;;;3.38;0.88;;;24.50;99.90;;;;;;4978716;28;20125;-90
2021/05/19 12:48:11;;;;;;;1.83;0.73;;;24.20;99.90;;;;;;4994699;28;20652;-89
2021/05/19 12:50:37;;;;;;;1.02;0.80;;;24.10;99.90;;;;;;4994377;28;20046;-89
2021/05/19 12:53:03;;;;;;;1.25;0.70;;;25.30;99.90;;;;;;4993982;28;20050;-89
2021/05/19 12:55:29;;;;;;;1.38;0.73;;;25.20;99.90;;;;;;4978218;28;20026;-89
2021/05/19 12:58:09;;;;;;;2.58;0.90;;;24.70;99.90;;;;;;4993517;28;20045;-89
2021/05/19 13:00:36;;;;;;;2.97;0.80;;;24.70;99.90;;;;;;4977456;28;20090;-89
2021/05/19 13:03:02;;;;;;;2.35;0.70;;;24.50;99.90;;;;;;4976292;28;20745;-89
2021/05/19 13:05:30;;;;;;;4.55;1.00;;;24.50;99.90;;;;;;4994005;28;20035;-89
2021/05/19 13:07:56;;;;;;;1.50;0.57;;;24.90;99.90;;;;;;4993565;28;20033;-89